createdAt,value
2024-03-22T00:00:52.065Z,120.01
2024-03-22T00:01:52.132Z,122.48
2024-03-22T00:02:52.170Z,120.81
2024-03-22T00:03:52.228Z,119.51
2024-03-22T00:04:52.285Z,119.01
2024-03-22T00:58:05.495Z,120.62
2024-03-22T00:58:53.882Z,124.95
2024-03-22T00:59:53.906Z,141.62
2024-03-22T01:00:53.944Z,163.29
2024-03-22T01:01:53.979Z,186.99
2024-03-22T01:02:54.012Z,211.27
2024-03-22T01:03:54.055Z,204.14
2024-03-22T01:04:54.100Z,191.53
2024-03-22T01:05:54.134Z,179.62
2024-03-22T01:06:54.177Z,171.62
2024-03-22T01:07:54.207Z,167.25
2024-03-22T01:08:54.256Z,164.36
2024-03-22T01:09:54.283Z,158.20
2024-03-22T01:10:54.330Z,151.20
2024-03-22T01:12:05.459Z,50.00
2024-03-22T01:13:06.438Z,50.00
2024-03-22T01:14:06.474Z,50.00
2024-03-22T01:15:06.438Z,50.00
2024-03-22T01:16:06.426Z,50.00
2024-03-22T01:17:06.432Z,50.00
2024-03-22T01:18:06.424Z,50.00
2024-03-22T01:19:06.444Z,50.54
2024-03-22T01:20:06.411Z,50.56
2024-03-22T01:21:06.417Z,52.79
2024-03-22T01:22:06.429Z,54.19
2024-03-22T01:23:06.427Z,58.26
2024-03-22T01:24:06.428Z,62.12
2024-03-22T01:25:06.429Z,64.99
2024-03-22T01:26:06.422Z,64.19
2024-03-22T01:27:06.425Z,64.77
2024-03-22T01:28:06.440Z,68.74
2024-03-22T01:29:06.412Z,69.61
2024-03-22T01:30:06.424Z,74.32
2024-03-22T01:31:06.429Z,75.56
2024-03-22T01:32:06.403Z,76.81
2024-03-22T01:33:06.404Z,76.21
2024-03-22T01:34:06.415Z,74.70
2024-03-22T01:35:06.389Z,73.67
2024-03-22T01:36:06.397Z,71.26
2024-03-22T01:37:06.385Z,73.55
2024-03-22T01:38:06.384Z,73.72
2024-03-22T01:39:06.368Z,72.54
2024-03-22T01:40:06.378Z,74.15
2024-03-22T01:41:06.351Z,75.86
2024-03-22T01:42:06.340Z,74.04
2024-03-22T01:43:06.333Z,70.20
2024-03-22T01:44:06.323Z,66.98
2024-03-22T01:45:06.308Z,65.44
2024-03-22T01:46:06.324Z,65.98
2024-03-22T01:47:06.340Z,68.49
2024-03-22T01:48:06.393Z,69.21
2024-03-22T01:49:06.436Z,69.57
2024-03-22T01:50:06.518Z,68.67
2024-03-22T01:51:06.553Z,64.27
2024-03-22T01:52:06.615Z,63.31
2024-03-22T01:53:06.663Z,64.33
2024-03-22T01:54:06.704Z,67.14
2024-03-22T01:55:06.760Z,72.71
2024-03-22T01:56:06.805Z,71.78
2024-03-22T01:57:06.875Z,64.32
2024-03-22T01:58:06.914Z,57.98
2024-03-22T01:59:06.968Z,55.50
2024-03-22T02:00:07.023Z,52.33
2024-03-22T02:01:07.089Z,51.10
2024-03-22T02:02:07.119Z,50.00
2024-03-22T02:03:07.136Z,50.04
2024-03-22T02:04:07.187Z,53.48
2024-03-22T02:05:07.243Z,50.82
2024-03-22T02:06:07.311Z,52.92
2024-03-22T02:07:07.367Z,52.33
2024-03-22T02:08:07.434Z,51.62
2024-03-22T02:09:07.493Z,55.27
2024-03-22T02:10:07.559Z,54.73
2024-03-22T02:11:07.627Z,52.60
2024-03-22T02:12:07.661Z,56.40
2024-03-22T02:13:07.727Z,58.56
2024-03-22T02:14:07.787Z,55.93
2024-03-22T02:15:07.798Z,57.01
2024-03-22T02:16:07.814Z,61.31
2024-03-22T02:17:08.689Z,61.34
2024-03-22T02:18:07.867Z,66.39
2024-03-22T02:19:07.870Z,67.05
2024-03-22T02:20:07.939Z,68.28
2024-03-22T02:21:08.000Z,72.61
2024-03-22T02:22:08.080Z,69.64
2024-03-22T02:23:08.111Z,66.01
2024-03-22T02:24:08.134Z,58.73
2024-03-22T02:25:08.143Z,50.27
2024-03-22T02:26:08.174Z,50.00
2024-03-22T02:27:10.640Z,51.95
2024-03-22T02:28:08.188Z,50.31
2024-03-22T02:29:08.194Z,50.00
2024-03-22T02:30:08.193Z,51.13
2024-03-22T02:31:08.199Z,51.72
2024-03-22T02:32:08.183Z,50.53
2024-03-22T02:33:08.184Z,50.40
2024-03-22T02:34:08.181Z,51.41
2024-03-22T02:35:08.178Z,53.40
2024-03-22T02:36:08.183Z,51.58
2024-03-22T02:37:08.167Z,50.00
2024-03-22T02:38:08.181Z,51.66
2024-03-22T02:39:08.184Z,50.00
2024-03-22T02:40:08.176Z,52.61
2024-03-22T02:41:08.165Z,55.38
2024-03-22T02:42:08.171Z,54.27
2024-03-22T02:43:08.177Z,54.54
2024-03-22T02:44:08.186Z,56.45
2024-03-22T02:45:08.197Z,57.40
2024-03-22T02:46:08.208Z,57.86
2024-03-22T02:47:08.183Z,60.55
2024-03-22T02:48:08.178Z,61.90
2024-03-22T02:49:08.168Z,66.12
2024-03-22T02:50:08.180Z,69.26
2024-03-22T02:51:08.159Z,72.31
2024-03-22T02:52:08.141Z,72.95
2024-03-22T02:53:08.156Z,75.76
2024-03-22T02:54:08.131Z,73.28
2024-03-22T02:55:08.188Z,72.77
2024-03-22T02:56:08.121Z,73.97
2024-03-22T02:57:08.119Z,77.65
2024-03-22T02:58:08.132Z,80.95
2024-03-22T02:59:08.116Z,86.60
2024-03-22T03:00:08.124Z,94.22
2024-03-22T03:01:08.120Z,98.26
2024-03-22T03:02:08.094Z,105.14
2024-03-22T03:03:08.101Z,109.05
2024-03-22T03:04:08.077Z,111.87
2024-03-22T03:05:08.062Z,114.95
2024-03-22T03:06:08.092Z,114.10
2024-03-22T03:07:08.134Z,114.99
2024-03-22T03:08:08.172Z,115.03
2024-03-22T03:09:08.219Z,109.76
2024-03-22T03:10:08.297Z,102.57
2024-03-22T03:11:08.380Z,97.64
2024-03-22T03:12:10.400Z,96.10
2024-03-22T03:13:08.436Z,91.94
2024-03-22T03:14:08.410Z,92.75
2024-03-22T03:15:08.398Z,90.48
2024-03-22T03:16:08.389Z,89.85
2024-03-22T03:17:08.400Z,93.95
2024-03-22T03:18:08.402Z,100.64
2024-03-22T03:19:08.374Z,104.49
2024-03-22T03:20:08.350Z,108.74
2024-03-22T03:21:08.359Z,104.27
2024-03-22T03:22:08.392Z,102.22
2024-03-22T03:23:08.360Z,100.85
2024-03-22T03:24:08.344Z,102.94
2024-03-22T03:25:08.408Z,106.49
2024-03-22T03:26:08.474Z,108.87
2024-03-22T03:27:08.542Z,112.53
2024-03-22T03:28:08.595Z,113.49
2024-03-22T03:29:08.661Z,116.23
2024-03-22T03:30:08.730Z,119.95
2024-03-22T03:31:08.776Z,122.94
2024-03-22T03:32:08.825Z,128.64
2024-03-22T03:33:08.903Z,131.71
2024-03-22T03:34:08.944Z,131.03
2024-03-22T03:35:09.021Z,134.11
2024-03-22T03:36:09.090Z,128.74
2024-03-22T03:37:09.136Z,130.43
2024-03-22T03:38:09.215Z,131.30
2024-03-22T03:39:09.271Z,128.84
2024-03-22T03:40:09.397Z,123.56
2024-03-22T03:41:09.380Z,121.57
2024-03-22T03:42:09.412Z,120.74
2024-03-22T03:43:09.554Z,120.81
2024-03-22T03:44:09.540Z,118.82
2024-03-22T03:45:09.605Z,118.19
2024-03-22T03:46:09.661Z,116.36
2024-03-22T03:47:09.729Z,114.82
2024-03-22T03:48:09.799Z,110.91
2024-03-22T03:49:09.860Z,103.48
2024-03-22T03:50:09.948Z,94.06
2024-03-22T03:51:09.995Z,88.24
2024-03-22T03:52:10.072Z,82.07
2024-03-22T03:53:10.121Z,76.12
2024-03-22T03:54:10.193Z,64.81
2024-03-22T03:55:10.211Z,57.53
2024-03-22T03:56:10.280Z,51.66
2024-03-22T03:57:10.315Z,50.61
2024-03-22T03:58:10.395Z,54.53
2024-03-22T03:59:10.422Z,56.87
2024-03-22T04:00:10.494Z,60.59
2024-03-22T04:01:10.506Z,60.30
2024-03-22T04:02:10.538Z,59.00
2024-03-22T04:03:10.567Z,57.42
2024-03-22T04:04:10.559Z,61.86
2024-03-22T04:05:10.590Z,66.31
2024-03-22T04:06:10.635Z,69.80
2024-03-22T04:07:10.707Z,68.58
2024-03-22T04:08:10.731Z,69.81
2024-03-22T04:09:10.762Z,74.29
2024-03-22T04:10:10.841Z,79.13
2024-03-22T04:11:10.865Z,82.87
2024-03-22T04:12:10.929Z,88.04
2024-03-22T04:13:10.998Z,95.19
2024-03-22T04:14:11.046Z,103.28
2024-03-22T04:15:11.112Z,108.79
2024-03-22T04:16:11.244Z,111.60
2024-03-22T04:17:11.266Z,118.99
2024-03-22T04:18:11.328Z,123.74
2024-03-22T04:19:11.391Z,129.73
2024-03-22T04:20:11.469Z,129.66
2024-03-22T04:21:11.519Z,128.24
2024-03-22T04:22:11.598Z,124.19
2024-03-22T04:23:11.643Z,121.92
2024-03-22T04:24:11.715Z,120.93
2024-03-22T04:25:11.774Z,115.99
2024-03-22T04:26:11.823Z,109.64
2024-03-22T04:27:11.854Z,107.38
2024-03-22T04:28:11.902Z,105.63
2024-03-22T04:29:11.943Z,105.18
2024-03-22T04:30:11.998Z,105.29
2024-03-22T04:31:12.056Z,106.23
2024-03-22T04:32:12.113Z,107.56
2024-03-22T04:33:12.156Z,111.20
2024-03-22T04:34:12.219Z,113.44
2024-03-22T04:35:12.279Z,112.91
2024-03-22T04:36:12.350Z,117.17
2024-03-22T04:37:19.723Z,50.00
2024-03-22T04:38:20.741Z,50.00
2024-03-22T04:39:20.764Z,50.00
2024-03-22T04:40:20.806Z,50.00
2024-03-22T04:41:20.852Z,50.00
2024-03-22T04:42:20.852Z,52.91
2024-03-22T04:43:20.880Z,59.56
2024-03-22T04:44:20.923Z,60.07
2024-03-22T04:45:20.949Z,64.55
2024-03-22T04:46:20.990Z,65.90
2024-03-22T04:47:21.024Z,64.83
2024-03-22T04:48:21.040Z,66.55
2024-03-22T04:49:21.079Z,70.81
2024-03-22T04:50:21.095Z,70.68
2024-03-22T04:51:21.136Z,76.65
2024-03-22T04:52:21.174Z,75.98
2024-03-22T04:53:21.193Z,78.68
2024-03-22T04:54:21.238Z,83.35
2024-03-22T04:55:21.282Z,88.72
2024-03-22T04:56:21.297Z,91.07
2024-03-22T04:57:21.352Z,95.20
2024-03-22T04:58:39.194Z,50.00
2024-03-22T04:59:40.183Z,50.00
2024-03-22T05:00:40.197Z,50.00
2024-03-22T05:01:40.210Z,50.00
2024-03-22T05:02:40.222Z,50.00
2024-03-22T05:03:40.239Z,50.82
2024-03-22T05:04:40.243Z,52.05
2024-03-22T05:05:40.256Z,50.63
2024-03-22T05:06:40.259Z,53.57
2024-03-22T05:07:40.270Z,51.28
2024-03-22T05:08:40.352Z,50.62
2024-03-22T05:09:40.317Z,52.96
2024-03-22T05:10:40.324Z,51.21
2024-03-22T05:11:40.332Z,51.23
2024-03-22T05:12:40.369Z,54.91
2024-03-22T05:13:40.372Z,54.96
2024-03-22T05:14:40.397Z,56.99
2024-03-22T05:15:40.389Z,56.17
2024-03-22T05:16:40.398Z,54.30
2024-03-22T05:17:40.401Z,53.80
2024-03-22T05:18:40.425Z,52.01
2024-03-22T05:19:40.434Z,50.53
2024-03-22T05:20:40.488Z,50.83
2024-03-22T05:21:40.467Z,51.74
2024-03-22T05:22:40.492Z,50.00
2024-03-22T05:23:40.529Z,50.00
2024-03-22T05:24:40.589Z,53.66
2024-03-22T05:25:40.694Z,56.30
2024-03-22T05:26:40.739Z,58.95
2024-03-22T05:27:40.816Z,63.36
2024-03-22T05:28:40.881Z,68.77
2024-03-22T05:29:41.044Z,70.55
2024-03-22T05:30:41.022Z,75.38
2024-03-22T05:31:41.101Z,79.58
2024-03-22T05:32:41.234Z,79.60
2024-03-22T05:33:41.829Z,75.84
2024-03-22T05:34:41.350Z,79.46
2024-03-22T05:35:41.420Z,81.87
2024-03-22T05:36:41.484Z,82.09
2024-03-22T05:37:41.564Z,80.93
2024-03-22T05:38:41.609Z,80.10
2024-03-22T05:39:41.692Z,76.15
2024-03-22T05:40:41.719Z,72.95
2024-03-22T05:41:41.811Z,74.58
2024-03-22T05:42:41.835Z,75.47
2024-03-22T05:43:41.899Z,71.57
2024-03-22T05:44:42.030Z,62.17
2024-03-22T05:45:42.055Z,55.79
2024-03-22T05:46:42.129Z,52.53
2024-03-22T05:47:42.235Z,51.36
2024-03-22T05:48:42.307Z,55.11
2024-03-22T05:49:42.405Z,55.20
2024-03-22T05:50:42.521Z,55.83
2024-03-22T05:51:42.643Z,57.47
2024-03-22T05:52:42.687Z,57.22
2024-03-22T05:53:42.832Z,57.92
2024-03-22T05:54:42.852Z,56.62
2024-03-22T05:55:42.942Z,58.88
2024-03-22T05:56:43.028Z,59.10
2024-03-22T05:57:43.096Z,57.77
2024-03-22T05:58:43.188Z,57.79
2024-03-22T05:59:43.257Z,56.59
2024-03-22T06:00:43.561Z,60.03
2024-03-22T06:01:43.399Z,60.47
2024-03-22T06:02:43.466Z,62.28
2024-03-22T06:03:43.512Z,61.14
2024-03-22T06:04:45.986Z,60.19
2024-03-22T06:05:43.620Z,60.25
2024-03-22T06:06:43.612Z,59.75
2024-03-22T06:07:43.649Z,50.01
2024-03-22T06:08:43.671Z,40.79
2024-03-22T06:09:43.668Z,39.08
2024-03-22T06:10:43.671Z,54.56
2024-03-22T06:11:43.705Z,51.97
2024-03-22T06:12:43.710Z,50.00
2024-03-22T06:13:43.734Z,50.32
2024-03-22T06:14:43.777Z,53.56
2024-03-22T06:15:43.762Z,53.23
2024-03-22T06:16:43.779Z,52.61
2024-03-22T06:17:43.779Z,53.94
2024-03-22T06:18:43.782Z,55.53
2024-03-22T06:19:43.817Z,53.57
2024-03-22T06:20:43.830Z,51.47
2024-03-22T06:21:43.858Z,52.40
2024-03-22T06:22:43.832Z,50.00
2024-03-22T06:23:43.927Z,50.13
2024-03-22T06:24:43.908Z,52.23
2024-03-22T06:25:43.887Z,50.00
2024-03-22T06:26:46.072Z,53.23
2024-03-22T06:27:45.732Z,52.32
2024-03-22T06:28:43.940Z,52.57
2024-03-22T06:29:43.961Z,53.84
2024-03-22T06:30:43.943Z,55.76
2024-03-22T06:31:43.953Z,57.65
2024-03-22T06:32:44.346Z,58.17
2024-03-22T06:33:44.009Z,57.34
2024-03-22T06:34:44.017Z,53.51
2024-03-22T06:35:44.015Z,51.70
2024-03-22T06:36:44.317Z,50.92
2024-03-22T06:37:44.055Z,50.00
2024-03-22T06:38:44.059Z,51.24
2024-03-22T06:39:44.082Z,52.90
2024-03-22T06:40:44.073Z,50.43
2024-03-22T06:41:44.129Z,51.37
2024-03-22T06:42:44.107Z,52.15
2024-03-22T06:43:44.108Z,51.17
2024-03-22T06:44:44.123Z,51.69
2024-03-22T06:45:44.146Z,53.70
2024-03-22T06:46:44.157Z,51.41
2024-03-22T06:47:44.414Z,54.37
2024-03-22T06:48:44.205Z,57.35
2024-03-22T06:49:44.190Z,59.75
2024-03-22T06:50:44.219Z,59.97
2024-03-22T06:51:44.236Z,58.10
2024-03-22T06:52:44.330Z,60.25
2024-03-22T06:53:44.275Z,58.20
2024-03-22T06:54:44.270Z,60.47
2024-03-22T06:55:44.329Z,62.77
2024-03-22T06:56:44.378Z,62.54
2024-03-22T06:57:44.832Z,65.04
2024-03-22T06:58:44.486Z,64.05
2024-03-22T06:59:47.759Z,59.54
2024-03-22T07:00:44.554Z,59.58
2024-03-22T07:01:44.546Z,60.57
2024-03-22T07:02:44.834Z,62.54
2024-03-22T07:03:45.030Z,66.44
2024-03-22T07:04:44.859Z,71.35
2024-03-22T07:05:44.562Z,65.18
2024-03-22T07:06:44.832Z,63.89
2024-03-22T07:07:44.554Z,62.88
2024-03-22T07:08:44.623Z,67.21
2024-03-22T07:09:44.890Z,64.93
2024-03-22T07:10:44.574Z,65.83
2024-03-22T07:11:45.074Z,58.65
2024-03-22T07:12:44.659Z,55.80
2024-03-22T07:13:44.590Z,53.95
2024-03-22T07:14:44.630Z,50.00
2024-03-22T07:15:44.646Z,52.74
2024-03-22T07:16:44.826Z,50.52
2024-03-22T07:17:44.778Z,51.60
2024-03-22T07:18:44.867Z,49.87
2024-03-22T07:19:44.680Z,51.02
2024-03-22T07:20:44.907Z,50.03
2024-03-22T07:21:44.859Z,51.13
2024-03-22T07:22:44.772Z,56.68
2024-03-22T07:23:44.735Z,53.71
2024-03-22T07:24:44.753Z,59.23
2024-03-22T07:25:44.803Z,54.16
2024-03-22T07:26:44.828Z,53.69
2024-03-22T07:27:44.855Z,51.80
2024-03-22T07:28:45.220Z,53.32
2024-03-22T07:29:45.184Z,54.08
2024-03-22T07:30:45.034Z,54.78
2024-03-22T07:31:45.916Z,59.11
2024-03-22T07:32:45.639Z,61.31
2024-03-22T07:33:45.509Z,62.09
2024-03-22T07:34:45.501Z,63.64
2024-03-22T07:35:45.542Z,67.25
2024-03-22T07:36:45.876Z,63.30
2024-03-22T07:37:45.630Z,61.68
2024-03-22T07:38:45.687Z,63.43
2024-03-22T07:39:45.256Z,63.82
2024-03-22T07:40:45.318Z,66.99
2024-03-22T07:41:45.994Z,69.98
2024-03-22T07:42:45.526Z,78.95
2024-03-22T07:43:45.573Z,79.75
2024-03-22T07:44:45.899Z,81.59
2024-03-22T07:45:46.072Z,72.58
2024-03-22T07:46:46.097Z,54.25
2024-03-22T07:47:45.622Z,48.29
2024-03-22T07:48:45.607Z,51.24
2024-03-22T07:49:45.604Z,50.34
2024-03-22T07:50:45.638Z,50.49
2024-03-22T07:51:45.843Z,50.00
2024-03-22T07:52:45.901Z,50.00
2024-03-22T07:53:45.832Z,51.87
2024-03-22T07:54:45.768Z,58.18
2024-03-22T07:55:45.866Z,63.45
2024-03-22T07:56:46.000Z,57.29
2024-03-22T07:57:46.265Z,57.42
2024-03-22T07:58:45.920Z,56.07
2024-03-22T07:59:45.992Z,55.06
2024-03-22T08:00:45.992Z,52.57
2024-03-22T08:01:46.403Z,54.57
2024-03-22T08:02:46.003Z,60.67
2024-03-22T08:03:46.437Z,63.90
2024-03-22T08:04:46.422Z,58.46
2024-03-22T08:05:46.887Z,50.00
2024-03-22T08:06:46.913Z,50.57
2024-03-22T08:07:46.345Z,51.21
2024-03-22T08:08:46.168Z,52.93
2024-03-22T08:09:46.222Z,51.28
2024-03-22T08:10:46.277Z,54.49
2024-03-22T08:11:46.229Z,50.00
2024-03-22T08:12:46.294Z,50.00
2024-03-22T08:13:46.324Z,50.59
2024-03-22T08:14:46.356Z,55.86
2024-03-22T08:15:46.394Z,57.76
2024-03-22T08:16:46.399Z,57.75
2024-03-22T08:17:46.434Z,50.09
2024-03-22T08:18:46.440Z,50.00
2024-03-22T08:19:46.458Z,55.53
2024-03-22T08:20:46.709Z,62.16
2024-03-22T08:21:46.584Z,66.09
2024-03-22T08:22:46.605Z,69.01
2024-03-22T08:23:46.914Z,67.08
2024-03-22T08:24:46.852Z,55.19
2024-03-22T08:25:46.735Z,50.00
2024-03-22T08:26:46.725Z,50.33
2024-03-22T08:27:59.707Z,57.17
2024-03-22T08:28:47.119Z,57.44
2024-03-22T08:29:47.853Z,57.31
2024-03-22T08:30:46.702Z,50.22
2024-03-22T08:31:46.859Z,38.20
2024-03-22T08:32:46.599Z,35.79
2024-03-22T08:33:46.861Z,26.50
2024-03-22T08:34:46.629Z,21.63
2024-03-22T08:35:46.880Z,38.42
2024-03-22T08:36:46.540Z,49.13
2024-03-22T08:37:46.530Z,50.00
2024-03-22T08:38:46.528Z,50.00
2024-03-22T08:39:46.561Z,50.45
2024-03-22T08:40:46.501Z,50.91
2024-03-22T08:41:47.010Z,54.20
2024-03-22T08:42:46.459Z,63.18
2024-03-22T08:43:45.856Z,64.40
2024-03-22T08:44:46.769Z,58.24
2024-03-22T08:45:46.435Z,196.95
2024-03-22T08:46:46.899Z,149.23
2024-03-22T08:47:46.429Z,112.53
2024-03-22T08:48:46.409Z,96.21
2024-03-22T08:49:46.898Z,89.48
2024-03-22T08:50:46.428Z,85.61
2024-03-22T08:51:46.454Z,86.72
2024-03-22T08:52:46.463Z,79.12
2024-03-22T08:53:46.610Z,78.06
2024-03-22T08:54:46.852Z,60.60
2024-03-22T08:55:46.520Z,49.88
2024-03-22T08:56:46.884Z,50.00
2024-03-22T08:57:54.238Z,54.83
2024-03-22T08:58:46.547Z,55.03
2024-03-22T08:59:46.890Z,55.21
2024-03-22T09:00:46.498Z,43.49
2024-03-22T09:01:46.507Z,32.20
2024-03-22T09:02:46.482Z,25.93
2024-03-22T09:03:46.481Z,44.33
2024-03-22T09:04:46.885Z,50.76
2024-03-22T09:05:53.009Z,50.00
2024-03-22T09:06:46.402Z,50.08
2024-03-22T09:07:47.350Z,49.33
2024-03-22T09:08:46.536Z,43.50
2024-03-22T09:09:46.867Z,41.47
2024-03-22T09:10:46.628Z,40.86
2024-03-22T09:11:46.556Z,50.69
2024-03-22T09:12:46.584Z,53.40
2024-03-22T09:13:46.561Z,57.68
2024-03-22T09:14:46.860Z,56.64
2024-03-22T09:15:46.925Z,53.59
2024-03-22T09:16:46.565Z,58.87
2024-03-22T09:17:46.862Z,65.65
2024-03-22T09:18:46.521Z,64.48
2024-03-22T09:19:46.519Z,68.45
2024-03-22T09:20:46.559Z,71.05
2024-03-22T09:21:46.565Z,66.64
2024-03-22T09:22:47.854Z,61.14
2024-03-22T09:23:46.632Z,61.50
2024-03-22T09:24:46.541Z,61.00
2024-03-22T09:25:48.409Z,68.76
2024-03-22T09:26:46.867Z,72.53
2024-03-22T09:27:46.903Z,78.77
2024-03-22T09:28:46.893Z,84.06
2024-03-22T09:29:46.445Z,88.15
2024-03-22T09:30:56.463Z,94.40
2024-03-22T09:31:46.630Z,94.67
2024-03-22T09:32:46.361Z,96.25
2024-03-22T09:33:46.336Z,98.21
2024-03-22T09:34:46.297Z,102.16
2024-03-22T09:35:46.311Z,105.81
2024-03-22T09:36:46.230Z,103.95
2024-03-22T09:37:46.361Z,107.42
2024-03-22T09:38:46.146Z,115.03
2024-03-22T09:39:46.172Z,116.52
2024-03-22T09:40:46.150Z,115.80
2024-03-22T09:41:49.040Z,119.54
2024-03-22T09:42:46.369Z,119.77
2024-03-22T09:43:46.002Z,120.32
2024-03-22T09:44:49.194Z,119.63
2024-03-22T09:45:45.915Z,119.72
2024-03-22T09:46:45.891Z,119.58
2024-03-22T09:47:45.882Z,118.35
2024-03-22T09:48:45.818Z,118.17
2024-03-22T09:49:45.822Z,117.84
2024-03-22T09:50:45.778Z,124.87
2024-03-22T09:51:45.697Z,127.02
2024-03-22T09:52:45.878Z,122.31
2024-03-22T09:53:47.096Z,121.07
2024-03-22T09:54:45.568Z,121.12
2024-03-22T09:55:45.529Z,108.92
2024-03-22T09:56:45.493Z,103.41
2024-03-22T09:57:45.462Z,97.96
2024-03-22T09:58:45.397Z,97.02
2024-03-22T09:59:46.338Z,92.16
2024-03-22T10:00:45.408Z,101.29
2024-03-22T10:01:45.352Z,104.96
2024-03-22T10:02:45.378Z,105.88
2024-03-22T10:03:45.181Z,108.62
2024-03-22T10:04:45.158Z,109.78
2024-03-22T10:05:46.798Z,103.44
2024-03-22T10:06:45.078Z,94.26
2024-03-22T10:07:45.381Z,88.62
2024-03-22T10:08:45.034Z,88.64
2024-03-22T10:09:45.039Z,78.96
2024-03-22T10:10:44.976Z,70.43
2024-03-22T10:11:46.605Z,71.50
2024-03-22T10:12:46.395Z,77.57
2024-03-22T10:13:45.008Z,67.22
2024-03-22T10:14:45.404Z,63.42
2024-03-22T10:15:45.087Z,65.32
2024-03-22T10:16:45.111Z,60.74
2024-03-22T10:17:45.109Z,56.06
2024-03-22T10:18:45.376Z,50.00
2024-03-22T10:19:45.079Z,49.18
2024-03-22T10:20:45.027Z,49.54
2024-03-22T10:21:46.003Z,50.59
2024-03-22T10:22:45.516Z,51.87
2024-03-22T10:23:44.920Z,51.79
2024-03-22T10:24:44.895Z,53.97
2024-03-22T10:25:44.837Z,49.12
2024-03-22T10:26:44.852Z,52.68
2024-03-22T10:27:44.834Z,55.68
2024-03-22T10:28:44.976Z,51.16
2024-03-22T10:29:46.452Z,49.99
2024-03-22T10:30:44.759Z,49.18
2024-03-22T10:31:44.731Z,50.00
2024-03-22T10:32:45.002Z,51.41
2024-03-22T10:33:44.710Z,51.43
2024-03-22T10:34:44.949Z,53.43
2024-03-22T10:35:44.597Z,63.51
2024-03-22T10:36:44.482Z,77.19
2024-03-22T10:37:47.900Z,88.68
2024-03-22T10:38:44.407Z,88.98
2024-03-22T10:39:44.356Z,86.26
2024-03-22T10:40:44.369Z,74.17
2024-03-22T10:41:44.980Z,62.63
2024-03-22T10:42:44.457Z,58.63
2024-03-22T10:43:45.843Z,57.94
2024-03-22T10:44:44.432Z,58.48
2024-03-22T10:45:44.178Z,63.24
2024-03-22T10:46:44.012Z,69.29
2024-03-22T10:47:44.033Z,74.03
2024-03-22T10:48:43.942Z,68.13
2024-03-22T10:49:44.662Z,72.53
2024-03-22T10:50:43.837Z,72.62
2024-03-22T10:51:43.794Z,73.34
2024-03-22T10:52:43.717Z,62.82
2024-03-22T10:53:43.669Z,52.82
2024-03-22T10:54:43.930Z,57.87
2024-03-22T10:55:43.619Z,54.17
2024-03-22T10:56:43.564Z,50.00
2024-03-22T10:57:44.461Z,49.94
2024-03-22T10:58:43.504Z,54.25
2024-03-22T10:59:43.384Z,50.00
2024-03-22T11:00:45.242Z,51.96
2024-03-22T11:01:43.257Z,52.02
2024-03-22T11:02:43.247Z,52.00
2024-03-22T11:03:43.256Z,53.17
2024-03-22T11:04:43.449Z,57.31
2024-03-22T11:05:43.135Z,59.52
2024-03-22T11:06:43.005Z,56.19
2024-03-22T11:07:42.960Z,52.62
2024-03-22T11:08:42.884Z,53.48
2024-03-22T11:09:42.891Z,51.95
2024-03-22T11:10:42.801Z,55.67
2024-03-22T11:11:42.709Z,53.60
2024-03-22T11:12:44.167Z,55.92
2024-03-22T11:13:42.901Z,55.30
2024-03-22T11:14:42.901Z,54.64
2024-03-22T11:15:41.738Z,57.72
2024-03-22T11:16:42.786Z,56.94
2024-03-22T11:17:42.724Z,55.08
2024-03-22T11:18:42.694Z,54.48
2024-03-22T11:19:43.008Z,54.45
2024-03-22T11:20:44.556Z,60.23
2024-03-22T11:21:42.679Z,60.35
2024-03-22T11:22:42.862Z,60.79
2024-03-22T11:23:42.612Z,60.49
2024-03-22T11:24:42.449Z,53.63
2024-03-22T11:25:43.031Z,53.82
2024-03-22T11:26:44.688Z,57.89
2024-03-22T11:27:42.279Z,58.08
2024-03-22T11:28:42.275Z,59.12
2024-03-22T11:29:42.146Z,60.82
2024-03-22T11:30:42.410Z,64.89
2024-03-22T11:31:42.029Z,71.77
2024-03-22T11:32:41.979Z,73.37
2024-03-22T11:33:41.866Z,69.34
2024-03-22T11:34:42.052Z,62.12
2024-03-22T11:35:41.760Z,61.39
2024-03-22T11:36:41.736Z,61.34
2024-03-22T11:37:41.604Z,61.48
2024-03-22T11:38:41.582Z,50.31
2024-03-22T11:39:41.461Z,50.31
2024-03-22T11:40:43.301Z,53.22
2024-03-22T11:41:41.312Z,53.05
2024-03-22T11:42:41.991Z,47.18
2024-03-22T11:43:41.593Z,45.03
2024-03-22T11:44:41.622Z,47.08
2024-03-22T11:45:40.714Z,48.43
2024-03-22T11:46:41.342Z,50.00
2024-03-22T11:47:41.683Z,50.14
2024-03-22T11:48:41.215Z,49.33
2024-03-22T11:49:41.343Z,52.70
2024-03-22T11:50:41.081Z,49.62
2024-03-22T11:51:40.946Z,50.81
2024-03-22T11:52:41.030Z,51.19
2024-03-22T11:53:40.880Z,50.00
2024-03-22T11:54:40.762Z,50.11
2024-03-22T11:55:40.893Z,55.83
2024-03-22T11:56:41.618Z,56.00
2024-03-22T11:57:40.043Z,63.18
2024-03-22T11:58:39.951Z,59.99
2024-03-22T11:59:39.856Z,52.26
2024-03-22T12:01:03.021Z,49.51
2024-03-22T12:01:39.794Z,46.74
2024-03-22T12:02:39.640Z,46.60
2024-03-22T12:03:39.602Z,47.76
2024-03-22T12:04:40.465Z,50.77
2024-03-22T12:05:39.975Z,52.35
2024-03-22T12:06:39.345Z,52.41
2024-03-22T12:07:39.245Z,54.97
2024-03-22T12:08:39.162Z,59.31
2024-03-22T12:09:39.070Z,61.90
2024-03-22T12:10:39.408Z,62.52
2024-03-22T12:11:38.942Z,58.80
2024-03-22T12:12:38.797Z,64.17
2024-03-22T12:13:38.731Z,65.16
2024-03-22T12:14:38.713Z,69.74
2024-03-22T12:15:38.691Z,74.25
2024-03-22T12:16:38.643Z,79.67
2024-03-22T12:17:38.616Z,83.49
2024-03-22T12:18:38.583Z,84.05
2024-03-22T12:19:38.612Z,87.90
2024-03-22T12:20:39.218Z,84.63
2024-03-22T12:21:38.472Z,76.48
2024-03-22T12:22:38.916Z,68.05
2024-03-22T12:23:38.429Z,65.64
2024-03-22T12:24:38.413Z,65.25
2024-03-22T12:25:38.373Z,65.63
2024-03-22T12:26:38.423Z,63.75
2024-03-22T12:27:39.798Z,64.50
2024-03-22T12:28:38.161Z,62.69
2024-03-22T12:29:38.111Z,65.05
2024-03-22T12:31:09.843Z,54.23
2024-03-22T12:31:37.955Z,54.32
2024-03-22T12:32:37.884Z,55.08
2024-03-22T12:33:37.915Z,55.51
2024-03-22T12:34:37.689Z,59.99
2024-03-22T12:35:37.612Z,66.15
2024-03-22T12:36:37.518Z,69.38
2024-03-22T12:37:37.952Z,71.04
2024-03-22T12:38:37.350Z,75.19
2024-03-22T12:39:37.280Z,74.66
2024-03-22T12:40:37.519Z,67.90
2024-03-22T12:41:37.252Z,59.67
2024-03-22T12:42:37.225Z,56.68
2024-03-22T12:43:43.722Z,60.45
2024-03-22T12:44:37.117Z,60.54
2024-03-22T12:45:37.043Z,61.34
2024-03-22T12:46:36.997Z,62.79
2024-03-22T12:47:36.874Z,63.41
2024-03-22T12:48:36.795Z,66.43
2024-03-22T12:49:36.709Z,69.74
2024-03-22T12:50:36.602Z,74.37
2024-03-22T12:51:36.955Z,76.96
2024-03-22T12:52:36.436Z,75.08
2024-03-22T12:53:36.360Z,63.12
2024-03-22T12:54:36.266Z,56.41
2024-03-22T12:55:36.172Z,53.18
2024-03-22T12:56:36.126Z,54.73
2024-03-22T12:57:35.993Z,54.16
2024-03-22T12:58:35.985Z,50.80
2024-03-22T12:59:35.808Z,50.00
2024-03-22T13:00:35.706Z,50.00
2024-03-22T13:01:35.623Z,50.00
2024-03-22T13:02:35.950Z,50.28
2024-03-22T13:03:35.427Z,52.51
2024-03-22T13:04:35.330Z,52.81
2024-03-22T13:05:35.226Z,53.88
2024-03-22T13:06:35.116Z,55.08
2024-03-22T13:07:35.041Z,54.87
2024-03-22T13:08:34.946Z,52.94
2024-03-22T13:09:34.869Z,50.71
2024-03-22T13:10:34.742Z,55.92
2024-03-22T13:11:34.642Z,54.28
2024-03-22T13:12:34.579Z,59.34
2024-03-22T13:13:34.450Z,60.82
2024-03-22T13:14:34.373Z,55.34
2024-03-22T13:15:34.265Z,57.69
2024-03-22T13:16:34.183Z,59.07
2024-03-22T13:17:34.083Z,56.60
2024-03-22T13:18:33.969Z,56.99
2024-03-22T13:19:33.892Z,55.29
2024-03-22T13:20:33.781Z,60.57
2024-03-22T13:21:33.652Z,55.41
2024-03-22T13:22:33.970Z,50.00
2024-03-22T13:23:34.582Z,50.00
2024-03-22T13:24:33.437Z,50.49
2024-03-22T13:25:33.368Z,50.06
2024-03-22T13:26:33.326Z,53.80
2024-03-22T13:27:33.303Z,60.05
2024-03-22T13:28:33.282Z,55.70
2024-03-22T13:29:33.186Z,54.33
2024-03-22T13:30:33.155Z,51.66
2024-03-22T13:31:36.136Z,52.08
2024-03-22T13:32:33.438Z,52.15
2024-03-22T13:33:32.914Z,52.91
2024-03-22T13:34:32.825Z,52.26
2024-03-22T13:35:32.687Z,45.60
2024-03-22T13:36:32.611Z,47.50
2024-03-22T13:37:32.477Z,52.44
2024-03-22T13:38:32.384Z,55.53
2024-03-22T13:39:32.269Z,52.22
2024-03-22T13:40:32.162Z,52.80
2024-03-22T13:41:32.038Z,50.79